createdAt,value
2019-01-10T00:04:47.145Z,102722.80
2019-01-10T00:09:48.688Z,102725.67
2019-01-10T00:14:50.272Z,102721.73
2019-01-10T00:19:53.644Z,102730.75
2019-01-10T00:24:55.210Z,102738.37
2019-01-10T00:29:56.780Z,102735.19
2019-01-10T00:34:58.358Z,102735.28
2019-01-10T00:39:59.842Z,102732.37
2019-01-10T00:45:01.404Z,102737.12
2019-01-10T00:50:04.039Z,102740.19
2019-01-10T00:55:05.947Z,102744.20
2019-01-10T01:00:16.186Z,102744.04
2019-01-10T01:05:17.745Z,102748.23
2019-01-10T01:10:21.603Z,102746.83
2019-01-10T01:15:23.140Z,102754.67
2019-01-10T01:20:24.751Z,102740.92
2019-01-10T01:25:26.666Z,102755.97
2019-01-10T01:30:28.597Z,102755.11
2019-01-10T01:35:31.934Z,102762.61
2019-01-10T01:40:33.888Z,102771.33
2019-01-10T01:45:35.470Z,102769.36
2019-01-10T01:50:37.020Z,102769.23
2019-01-10T01:55:38.846Z,102776.88
2019-01-10T02:00:40.392Z,102784.08
2019-01-10T02:05:41.932Z,102792.79
2019-01-10T02:10:43.506Z,102797.04
2019-01-10T02:15:45.000Z,102800.73
2019-01-10T02:20:46.567Z,102804.03
2019-01-10T02:25:48.548Z,102808.77
2019-01-10T02:30:50.117Z,102816.28
2019-01-10T02:35:51.689Z,102815.30
2019-01-10T02:40:53.266Z,102804.52
2019-01-10T02:45:54.806Z,102807.56
2019-01-10T02:50:56.321Z,102816.55
2019-01-10T02:55:58.323Z,102822.43
2019-01-10T03:00:59.902Z,102825.91
2019-01-10T03:06:01.432Z,102817.89
2019-01-10T03:11:02.982Z,102805.09
2019-01-10T03:16:04.507Z,102800.99
2019-01-10T03:21:06.045Z,102802.99
2019-01-10T03:26:07.854Z,102803.92
2019-01-10T03:31:09.720Z,102813.67
2019-01-10T03:36:11.267Z,102796.81
2019-01-10T03:41:13.168Z,102801.18
2019-01-10T03:46:14.704Z,102804.47
2019-01-10T03:51:16.575Z,102797.44
2019-01-10T03:56:18.118Z,102792.03
2019-01-10T04:01:19.663Z,102794.18
2019-01-10T04:06:21.172Z,102791.59
2019-01-10T04:11:22.743Z,102797.69
2019-01-10T04:16:24.251Z,102811.34
2019-01-10T04:21:25.807Z,102807.78
2019-01-10T04:26:27.301Z,102823.55
2019-01-10T04:31:28.873Z,102829.13
2019-01-10T04:36:30.401Z,102819.00
2019-01-10T04:41:31.997Z,102827.09
2019-01-10T04:46:33.500Z,102827.09
2019-01-10T04:51:35.042Z,102818.03
2019-01-10T04:56:36.616Z,102817.55
2019-01-10T05:01:38.142Z,102812.06
2019-01-10T05:06:41.739Z,102822.38
2019-01-10T05:11:43.248Z,102817.90
2019-01-10T05:16:44.801Z,102819.34
2019-01-10T05:21:46.455Z,102821.00
2019-01-10T05:26:48.409Z,102832.29
2019-01-10T05:31:50.007Z,102826.70
2019-01-10T05:36:51.562Z,102833.13
2019-01-10T05:41:53.471Z,102840.45
2019-01-10T05:46:55.046Z,102827.45
2019-01-10T05:51:56.634Z,102833.33
2019-01-10T05:56:58.191Z,102839.95
2019-01-10T06:01:59.739Z,102814.22
2019-01-10T06:07:01.293Z,102825.06
2019-01-10T06:12:03.656Z,102828.72
2019-01-10T06:17:05.223Z,102847.59
2019-01-10T06:22:07.085Z,102862.54
2019-01-10T06:27:08.668Z,102869.53
2019-01-10T06:32:10.365Z,102876.34
2019-01-10T06:37:12.718Z,102887.78
2019-01-10T06:42:14.601Z,102883.47
2019-01-10T06:47:16.591Z,102877.46
2019-01-10T06:52:18.466Z,102877.09
2019-01-10T06:57:20.053Z,102881.67
2019-01-10T07:02:21.631Z,102879.78
2019-01-10T07:07:23.397Z,102883.62
2019-01-10T07:12:24.948Z,102883.56
2019-01-10T07:17:26.548Z,102884.03
2019-01-10T07:22:28.293Z,102884.73
2019-01-10T07:27:29.819Z,102890.73
2019-01-10T07:32:31.526Z,102892.33
2019-01-10T07:37:33.114Z,102888.56
2019-01-10T07:42:34.661Z,102902.55
2019-01-10T07:47:36.635Z,102907.87
2019-01-10T07:52:38.194Z,102905.59
2019-01-10T07:57:40.101Z,102914.91
2019-01-10T08:02:41.881Z,102921.02
2019-01-10T08:07:43.481Z,102931.53
2019-01-10T08:12:45.001Z,102932.61
2019-01-10T08:17:46.535Z,102938.13
2019-01-10T08:22:48.571Z,102942.56
2019-01-10T08:27:50.496Z,102943.41
2019-01-10T08:32:52.061Z,102948.31
2019-01-10T08:37:53.580Z,102951.45
2019-01-10T08:42:55.541Z,102959.33
2019-01-10T08:47:57.127Z,102963.31
2019-01-10T08:52:58.718Z,102969.92
2019-01-10T08:58:00.273Z,102974.88
2019-01-10T09:03:01.778Z,102975.34
2019-01-10T09:08:03.415Z,102968.80
2019-01-10T09:13:04.986Z,102964.75
2019-01-10T09:18:06.589Z,102961.17
2019-01-10T09:23:08.220Z,102971.12
2019-01-10T09:28:09.921Z,102968.78
2019-01-10T09:33:11.442Z,102971.00
2019-01-10T09:38:12.982Z,102982.33
2019-01-10T09:43:14.572Z,102991.67
2019-01-10T09:48:16.126Z,102989.84
2019-01-10T09:53:17.683Z,102985.71
2019-01-10T09:58:19.530Z,102984.55
2019-01-10T10:03:21.103Z,102988.63
2019-01-10T10:08:22.768Z,102990.98
2019-01-10T10:13:24.355Z,102990.06
2019-01-10T10:18:26.020Z,102987.83
2019-01-10T10:23:27.588Z,102982.79
2019-01-10T10:28:29.153Z,102983.59
2019-01-10T10:33:30.754Z,102973.56
2019-01-10T10:38:32.318Z,102979.34
2019-01-10T10:43:34.503Z,102974.12
2019-01-10T10:48:36.108Z,102975.02
2019-01-10T10:53:37.727Z,102970.58
2019-01-10T10:58:39.271Z,102960.67
2019-01-10T11:03:40.858Z,102956.98
2019-01-10T11:08:44.564Z,102956.30
2019-01-10T11:13:45.899Z,102944.34
2019-01-10T11:18:47.428Z,102942.34
2019-01-10T11:23:48.983Z,102934.59
2019-01-10T11:28:50.524Z,102940.06
2019-01-10T11:33:52.373Z,102935.16
2019-01-10T11:38:53.963Z,102936.14
2019-01-10T11:43:55.521Z,102932.44
2019-01-10T11:48:57.091Z,102928.27
2019-01-10T11:53:59.743Z,102935.06
2019-01-10T11:59:01.287Z,102927.17
2019-01-10T12:04:02.835Z,102942.39
2019-01-10T12:09:05.619Z,102937.06
2019-01-10T12:14:07.267Z,102930.92
2019-01-10T12:19:08.772Z,102933.52
2019-01-10T12:24:10.354Z,102930.45
2019-01-10T12:29:11.929Z,102927.00
2019-01-10T12:34:13.593Z,102913.31
2019-01-10T12:39:15.531Z,102908.52
2019-01-10T12:44:17.128Z,102913.47
2019-01-10T12:49:18.696Z,102908.20
2019-01-10T12:54:21.875Z,102908.47
2019-01-10T12:59:23.715Z,102906.12
2019-01-10T13:04:25.590Z,102899.22
2019-01-10T13:09:28.350Z,102898.67
2019-01-10T13:14:29.933Z,102899.40
2019-01-10T13:19:33.215Z,102907.06
2019-01-10T13:24:34.767Z,102906.02
2019-01-10T13:29:36.612Z,102903.61
2019-01-10T13:34:38.160Z,102907.53
2019-01-10T13:39:39.837Z,102899.97
2019-01-10T13:44:41.376Z,102899.95
2019-01-10T13:49:42.999Z,102901.23
2019-01-10T13:54:45.154Z,102902.30
2019-01-10T13:59:46.657Z,102905.47
2019-01-10T14:04:48.239Z,102904.53
2019-01-10T14:09:49.821Z,102906.97
2019-01-10T14:14:51.355Z,102899.28
2019-01-10T14:19:52.879Z,102902.02
2019-01-10T14:24:54.872Z,102896.58
2019-01-10T14:29:56.392Z,102895.78
2019-01-10T14:34:58.043Z,102900.78
2019-01-10T14:39:59.631Z,102895.31
2019-01-10T14:45:01.206Z,102898.84
2019-01-10T14:50:03.795Z,102899.11
2019-01-10T14:55:07.098Z,102896.48
2019-01-10T15:00:12.365Z,102907.03
2019-01-10T15:05:13.902Z,102903.11
2019-01-10T15:10:15.454Z,102902.02
2019-01-10T15:15:18.739Z,102904.06
2019-01-10T15:20:28.440Z,102893.61
2019-01-10T15:25:30.002Z,102904.43
2019-01-10T15:30:31.567Z,102895.67
2019-01-10T15:35:33.523Z,102888.84
2019-01-10T15:40:35.049Z,102888.27
2019-01-10T15:45:36.898Z,102888.13
2019-01-10T15:50:38.435Z,102891.20
2019-01-10T15:55:40.354Z,102879.17
2019-01-10T16:00:41.892Z,102875.08
2019-01-10T16:05:43.810Z,102882.08
2019-01-10T16:10:45.708Z,102883.02
2019-01-10T16:15:47.614Z,102882.58
2019-01-10T16:20:49.186Z,102880.35
2019-01-10T16:25:50.750Z,102880.73
2019-01-10T16:30:52.279Z,102880.32
2019-01-10T16:35:53.936Z,102876.38
2019-01-10T16:40:55.634Z,102874.24
2019-01-10T16:45:57.225Z,102870.97
2019-01-10T16:51:01.209Z,102873.83
2019-01-10T16:56:02.776Z,102871.85
2019-01-10T17:01:04.416Z,102873.79
2019-01-10T17:06:06.023Z,102877.41
2019-01-10T17:11:07.656Z,102875.36
2019-01-10T17:16:09.289Z,102884.72
2019-01-10T17:21:11.092Z,102881.36
2019-01-10T17:26:12.632Z,102881.06
2019-01-10T17:31:14.257Z,102878.71
2019-01-10T17:36:18.494Z,102876.82
2019-01-10T17:41:19.983Z,102868.42
2019-01-10T17:46:21.889Z,102875.69
2019-01-10T17:51:23.789Z,102872.66
2019-01-10T17:56:25.427Z,102874.84
2019-01-10T18:01:27.043Z,102873.08
2019-01-10T18:06:28.601Z,102867.66
2019-01-10T18:11:30.193Z,102866.95
2019-01-10T18:16:31.766Z,102867.45
2019-01-10T18:21:33.338Z,102871.34
2019-01-10T18:26:35.663Z,102870.52
2019-01-10T18:31:37.334Z,102872.73
2019-01-10T18:36:38.988Z,102870.00
2019-01-10T18:41:40.688Z,102868.91
2019-01-10T18:46:42.228Z,102875.41
2019-01-10T18:51:43.870Z,102873.22
2019-01-10T18:56:45.980Z,102867.91
2019-01-10T19:01:47.631Z,102873.28
2019-01-10T19:06:49.181Z,102871.59
2019-01-10T19:11:50.828Z,102866.14
2019-01-10T19:16:52.385Z,102876.94
2019-01-10T19:21:54.259Z,102872.11
2019-01-10T19:26:55.904Z,102873.66
2019-01-10T19:31:57.564Z,102870.63
2019-01-10T19:36:59.145Z,102873.93
2019-01-10T19:42:01.467Z,102866.50
2019-01-10T19:47:02.995Z,102872.41
2019-01-10T19:52:05.063Z,102864.42
2019-01-10T19:57:06.789Z,102870.00
2019-01-10T20:02:08.634Z,102864.33
2019-01-10T20:07:10.353Z,102868.34
2019-01-10T20:12:11.952Z,102866.06
2019-01-10T20:17:13.516Z,102868.88
2019-01-10T20:22:15.422Z,102865.59
2019-01-10T20:27:16.989Z,102862.86
2019-01-10T20:32:18.860Z,102864.98
2019-01-10T20:37:20.623Z,102860.03
2019-01-10T20:42:22.199Z,102857.67
2019-01-10T20:47:23.809Z,102853.02
2019-01-10T20:52:25.468Z,102850.88
2019-01-10T20:57:29.071Z,102845.92
2019-01-10T21:02:31.699Z,102841.02
2019-01-10T21:07:33.345Z,102839.05
2019-01-10T21:12:36.073Z,102833.06
2019-01-10T21:17:37.805Z,102828.23
2019-01-10T21:22:39.446Z,102833.98
2019-01-10T21:27:41.013Z,102831.08
2019-01-10T21:32:42.669Z,102824.75
2019-01-10T21:37:44.284Z,102824.59
2019-01-10T21:42:45.836Z,102818.09
2019-01-10T21:47:47.437Z,102816.41
2019-01-10T21:52:48.974Z,102814.56
2019-01-10T21:57:50.598Z,102817.16
2019-01-10T22:02:52.154Z,102807.08
2019-01-10T22:07:53.731Z,102799.14
2019-01-10T22:12:56.019Z,102796.00
2019-01-10T22:17:57.852Z,102790.34
2019-01-10T22:22:59.420Z,102782.92
2019-01-10T22:28:00.953Z,102785.15
2019-01-10T22:33:02.535Z,102781.01
2019-01-10T22:38:04.081Z,102781.25
2019-01-10T22:43:05.607Z,102778.70
2019-01-10T22:48:07.159Z,102774.56
2019-01-10T22:53:08.797Z,102771.28
2019-01-10T22:58:10.729Z,102764.11
2019-01-10T23:03:12.548Z,102766.47
2019-01-10T23:08:14.136Z,102767.52
2019-01-10T23:13:15.697Z,102768.36
2019-01-10T23:18:17.231Z,102762.63
2019-01-10T23:23:18.773Z,102755.98
2019-01-10T23:28:20.531Z,102749.41
2019-01-10T23:33:22.093Z,102746.94
2019-01-10T23:38:23.993Z,102742.41
2019-01-10T23:43:26.754Z,102736.92
2019-01-10T23:48:28.570Z,102727.20
2019-01-10T23:53:31.283Z,102727.99
2019-01-10T23:58:32.839Z,102735.00
